createdAt,value
2022-11-13T12:27:20.483Z,101054.59
2022-11-13T12:30:14.906Z,101048.25
2022-11-13T12:33:13.748Z,101042.81
2022-11-13T12:36:01.611Z,101040.00
2022-11-13T12:38:53.886Z,101033.50
2022-11-13T12:41:46.554Z,101027.72
2022-11-13T12:44:41.501Z,101017.53
2022-11-13T12:47:28.291Z,101009.63
2022-11-13T12:50:32.174Z,101000.28
2022-11-13T12:53:25.970Z,100987.78
2022-11-13T12:56:17.313Z,100973.38
2022-11-13T12:59:29.987Z,100975.50
2022-11-13T13:02:32.689Z,100973.50
2022-11-13T13:05:27.567Z,100963.75
2022-11-13T13:08:32.024Z,100968.03
2022-11-13T13:11:24.509Z,100961.38
2022-11-13T13:14:26.294Z,100946.88
2022-11-13T13:17:21.265Z,100939.59
2022-11-13T13:20:31.127Z,100936.91
2022-11-13T13:23:27.839Z,100933.28
2022-11-13T13:26:17.429Z,100931.59
2022-11-13T13:29:16.517Z,100928.16
2022-11-13T13:32:12.188Z,100915.84
2022-11-13T13:35:06.986Z,100908.47
2022-11-13T13:37:59.467Z,100905.63
2022-11-13T13:40:56.054Z,100898.41
2022-11-13T13:43:54.431Z,100895.59
2022-11-13T13:46:42.364Z,100876.19
2022-11-13T13:49:29.431Z,100881.28
2022-11-13T13:52:16.690Z,100874.59
2022-11-13T13:55:07.447Z,100870.44
2022-11-13T13:57:54.341Z,100872.13
2022-11-13T14:00:53.487Z,100868.91
2022-11-13T14:03:46.109Z,100864.63
2022-11-13T14:06:33.227Z,100859.63
2022-11-13T14:09:21.468Z,100849.66
2022-11-13T14:12:19.807Z,100861.63
2022-11-13T14:15:21.413Z,100853.22
2022-11-13T14:18:09.643Z,100846.00
2022-11-13T14:20:57.371Z,100830.31
2022-11-13T14:23:46.587Z,100818.69
2022-11-13T14:26:33.482Z,100817.00
2022-11-13T14:29:34.139Z,100819.34
2022-11-13T14:32:24.130Z,100813.44
2022-11-13T14:35:19.702Z,100818.41
2022-11-13T14:38:07.008Z,100806.66
2022-11-13T14:40:53.699Z,100803.97
2022-11-13T14:43:49.518Z,100809.03
2022-11-13T14:46:38.736Z,100801.41
2022-11-13T14:49:29.314Z,100793.28
2022-11-13T14:52:22.108Z,100795.41
2022-11-13T14:55:21.150Z,100790.22
2022-11-13T14:58:12.080Z,100790.69
2022-11-13T15:00:59.165Z,100792.97
2022-11-13T15:03:49.949Z,100798.44
2022-11-13T15:06:40.635Z,100793.59
2022-11-13T15:09:27.776Z,100781.06
2022-11-13T15:12:15.326Z,100790.97
2022-11-13T15:15:02.363Z,100784.47
2022-11-13T15:17:52.538Z,100783.41
2022-11-13T15:20:43.471Z,100779.75
2022-11-13T15:23:30.813Z,100778.66
2022-11-13T15:26:18.052Z,100783.63
2022-11-13T15:29:04.853Z,100782.06
2022-11-13T15:31:51.151Z,100782.84
2022-11-13T15:34:40.434Z,100794.81
2022-11-13T15:37:28.577Z,100790.16
2022-11-13T15:40:16.775Z,100787.38
2022-11-13T15:43:04.185Z,100783.94
2022-11-13T15:45:51.129Z,100780.16
2022-11-13T15:48:37.568Z,100783.22
2022-11-13T15:51:26.240Z,100779.88
2022-11-13T15:54:19.348Z,100782.38
2022-11-13T15:57:07.937Z,100786.16
2022-11-13T15:59:54.771Z,100784.06
2022-11-13T16:02:41.660Z,100785.47
2022-11-13T16:05:29.585Z,100780.47
2022-11-13T16:08:16.530Z,100786.88
2022-11-13T16:11:04.761Z,100787.34
2022-11-13T16:13:51.569Z,100784.47
2022-11-13T16:16:40.623Z,100786.44
2022-11-13T16:19:27.113Z,100781.63
2022-11-13T16:22:17.763Z,100789.34
2022-11-13T16:25:05.399Z,100779.81
2022-11-13T16:27:53.804Z,100781.81
2022-11-13T16:30:40.371Z,100776.28
2022-11-13T16:33:27.478Z,100784.41
2022-11-13T16:36:15.905Z,100782.84
2022-11-13T16:39:02.365Z,100782.44
2022-11-13T16:41:49.144Z,100777.31
2022-11-13T16:44:37.546Z,100779.84
2022-11-13T16:47:27.539Z,100775.31
2022-11-13T16:50:22.126Z,100777.88
2022-11-13T16:53:10.728Z,100769.16
2022-11-13T16:55:57.410Z,100772.19
2022-11-13T16:58:43.925Z,100782.78
2022-11-13T17:01:32.128Z,100781.19
2022-11-13T17:04:31.708Z,100779.69
2022-11-13T17:07:20.458Z,100770.06
2022-11-13T17:10:30.292Z,100776.03
2022-11-13T17:13:15.557Z,100772.22
2022-11-13T17:16:04.755Z,100770.41
2022-11-13T17:18:53.244Z,100758.91
2022-11-13T17:21:44.647Z,100770.66
2022-11-13T17:24:31.287Z,100759.84
2022-11-13T17:27:25.910Z,100759.06
2022-11-13T17:30:24.942Z,100755.75
2022-11-13T17:33:11.880Z,100766.69
2022-11-13T17:36:00.910Z,100763.34
2022-11-13T17:38:50.141Z,100773.22
2022-11-13T17:41:44.092Z,100754.22
2022-11-13T17:44:31.243Z,100768.13
2022-11-13T17:47:19.234Z,100753.66
2022-11-13T17:50:09.353Z,100749.97
2022-11-13T17:52:57.258Z,100748.25
2022-11-13T17:55:55.747Z,100747.22
2022-11-13T17:58:44.048Z,100751.91
2022-11-13T18:01:33.696Z,100751.00
2022-11-13T18:04:20.732Z,100754.88
2022-11-13T18:07:07.887Z,100750.38
2022-11-13T18:09:59.023Z,100754.97
2022-11-13T18:12:45.544Z,100754.00
2022-11-13T18:15:34.541Z,100750.66
2022-11-13T18:18:21.718Z,100736.44
2022-11-13T18:21:22.503Z,100742.63
2022-11-13T18:24:14.063Z,100739.72
2022-11-13T18:27:02.110Z,100736.66
2022-11-13T18:29:49.081Z,100734.22
2022-11-13T18:32:35.587Z,100732.59
2022-11-13T18:35:22.244Z,100727.31
2022-11-13T18:38:09.455Z,100728.38
2022-11-13T18:41:01.637Z,100728.50
2022-11-13T18:43:51.912Z,100719.91
2022-11-13T18:46:38.783Z,100722.75
2022-11-13T18:49:25.440Z,100715.84
2022-11-13T18:52:13.338Z,100728.03
2022-11-13T18:54:59.704Z,100717.47
2022-11-13T18:57:46.473Z,100719.53
2022-11-13T19:00:34.283Z,100718.38
2022-11-13T19:03:21.020Z,100720.91
2022-11-13T19:06:08.444Z,100714.75
2022-11-13T19:08:59.101Z,100714.00
2022-11-13T19:11:51.232Z,100713.41
2022-11-13T19:14:38.000Z,100713.22
2022-11-13T19:17:28.373Z,100711.81
2022-11-13T19:20:17.695Z,100717.28
2022-11-13T19:23:08.998Z,100707.00
2022-11-13T19:25:58.088Z,100711.84
2022-11-13T19:28:47.510Z,100702.06
2022-11-13T19:31:37.318Z,100703.38
2022-11-13T19:34:25.609Z,100704.72
2022-11-13T19:37:17.754Z,100701.47
2022-11-13T19:40:09.981Z,100700.63
2022-11-13T19:42:57.141Z,100696.81
2022-11-13T19:45:43.924Z,100703.13
2022-11-13T19:48:33.268Z,100703.66
2022-11-13T19:51:23.472Z,100697.97
2022-11-13T19:54:10.858Z,100691.75
2022-11-13T19:56:57.775Z,100692.03
2022-11-13T19:59:45.243Z,100696.19
2022-11-13T20:02:32.094Z,100698.59
2022-11-13T20:05:20.698Z,100699.78
2022-11-13T20:08:08.633Z,100692.19
2022-11-13T20:11:01.944Z,100704.19
2022-11-13T20:13:48.736Z,100704.19
2022-11-13T20:16:36.126Z,100697.53
2022-11-13T20:19:23.552Z,100701.78
2022-11-13T20:22:10.260Z,100708.72
2022-11-13T20:24:58.338Z,100709.97
2022-11-13T20:27:47.437Z,100709.16
2022-11-13T20:30:34.983Z,100706.31
2022-11-13T20:33:22.935Z,100705.06
2022-11-13T20:36:10.079Z,100704.84
2022-11-13T20:38:58.189Z,100704.41
2022-11-13T20:41:47.557Z,100702.81
2022-11-13T20:44:34.692Z,100702.22
2022-11-13T20:47:21.850Z,100704.25
2022-11-13T20:50:10.643Z,100709.25
2022-11-13T20:52:59.677Z,100710.72
2022-11-13T20:55:47.201Z,100710.13
2022-11-13T20:58:37.946Z,100708.94
2022-11-13T21:01:26.769Z,100715.47
2022-11-13T21:04:13.534Z,100705.38
2022-11-13T21:07:00.850Z,100715.56
2022-11-13T21:09:50.046Z,100708.50
2022-11-13T21:12:37.157Z,100709.34
2022-11-13T21:15:24.964Z,100710.78
2022-11-13T21:18:11.564Z,100706.06
2022-11-13T21:21:05.103Z,100716.78
2022-11-13T21:23:57.072Z,100711.97
2022-11-13T21:26:43.384Z,100707.09
2022-11-13T21:29:30.076Z,100710.84
2022-11-13T21:32:18.055Z,100701.97
2022-11-13T21:35:04.899Z,100697.91
2022-11-13T21:37:51.242Z,100697.91
2022-11-13T21:40:42.023Z,100693.84
2022-11-13T21:43:29.076Z,100694.25
2022-11-13T21:46:16.131Z,100692.22
2022-11-13T21:49:05.411Z,100697.13
2022-11-13T21:51:52.166Z,100694.69
2022-11-13T21:54:41.315Z,100689.09
2022-11-13T21:57:28.184Z,100696.09
2022-11-13T22:00:16.234Z,100700.19
2022-11-13T22:03:05.000Z,100697.63
2022-11-13T22:06:16.503Z,100693.81
2022-11-13T22:09:05.181Z,100684.69
2022-11-13T22:11:54.329Z,100678.81
2022-11-13T22:14:41.240Z,100683.50
2022-11-13T22:17:28.011Z,100682.47
2022-11-13T22:20:15.595Z,100675.22
2022-11-13T22:23:06.066Z,100674.75
2022-11-13T22:25:58.123Z,100674.69
2022-11-13T22:28:46.418Z,100677.88
2022-11-13T22:31:34.719Z,100674.00
2022-11-13T22:34:21.557Z,100671.13
2022-11-13T22:37:08.402Z,100667.69
2022-11-13T22:39:56.372Z,100667.69
2022-11-13T22:42:43.166Z,100665.63
2022-11-13T22:45:29.980Z,100671.28
2022-11-13T22:48:16.575Z,100663.13
2022-11-13T22:51:04.006Z,100662.09
2022-11-13T22:53:52.602Z,100660.63
2022-11-13T22:56:41.701Z,100651.31
2022-11-13T22:59:28.473Z,100651.69
2022-11-13T23:02:15.085Z,100652.88
2022-11-13T23:05:01.857Z,100665.38
2022-11-13T23:07:51.595Z,100671.03
2022-11-13T23:10:38.245Z,100667.19
2022-11-13T23:13:25.890Z,100662.91
2022-11-13T23:16:13.322Z,100668.78
2022-11-13T23:19:01.061Z,100665.72
2022-11-13T23:21:48.864Z,100663.69
2022-11-13T23:24:35.609Z,100661.22
2022-11-13T23:27:22.245Z,100655.09
2022-11-13T23:30:11.891Z,100657.88
2022-11-13T23:32:58.462Z,100648.09
2022-11-13T23:35:45.081Z,100644.00
2022-11-13T23:38:31.889Z,100646.22
2022-11-13T23:41:18.766Z,100643.16
2022-11-13T23:44:09.131Z,100641.69
2022-11-13T23:46:57.333Z,100643.88
2022-11-13T23:49:43.838Z,100645.06
2022-11-13T23:52:30.497Z,100637.31
2022-11-13T23:55:17.456Z,100638.91
2022-11-13T23:58:05.309Z,100638.91
